createdAt,value
2023-02-14T00:01:24.703Z,4.07
2023-02-14T00:03:54.973Z,3.80
2023-02-14T00:06:22.614Z,3.03
2023-02-14T00:08:52.401Z,4.82
2023-02-14T00:11:20.682Z,4.13
2023-02-14T00:14:06.694Z,6.40
2023-02-14T00:16:34.264Z,4.07
2023-02-14T00:19:04.648Z,5.15
2023-02-14T00:21:36.154Z,4.55
2023-02-14T00:24:12.901Z,3.83
2023-02-14T00:26:41.473Z,3.88
2023-02-14T00:29:14.283Z,3.83
2023-02-14T00:31:44.250Z,3.97
2023-02-14T00:34:15.372Z,3.63
2023-02-14T00:36:43.724Z,3.60
2023-02-14T00:39:13.348Z,3.28
2023-02-14T00:41:41.959Z,4.63
2023-02-14T00:44:11.677Z,3.60
2023-02-14T00:46:40.988Z,4.32
2023-02-14T00:49:09.064Z,4.03
2023-02-14T00:51:39.467Z,4.07
2023-02-14T00:54:07.180Z,4.00
2023-02-14T00:56:34.789Z,4.30
2023-02-14T00:59:02.363Z,5.22
2023-02-14T01:01:30.376Z,4.25
2023-02-14T01:03:59.073Z,4.47
2023-02-14T01:06:26.776Z,3.28
2023-02-14T01:08:54.439Z,3.92
2023-02-14T01:11:23.612Z,3.20
2023-02-14T01:13:55.619Z,4.57
2023-02-14T01:16:25.760Z,3.55
2023-02-14T01:18:58.184Z,3.08
2023-02-14T01:21:29.054Z,4.00
2023-02-14T01:23:59.561Z,3.38
2023-02-14T01:26:28.846Z,3.88
2023-02-14T01:28:57.252Z,3.08
2023-02-14T01:31:27.837Z,4.03
2023-02-14T01:33:58.229Z,4.05
2023-02-14T01:36:35.510Z,3.83
2023-02-14T01:39:10.892Z,5.72
2023-02-14T01:41:41.518Z,8.02
2023-02-14T01:44:15.277Z,7.88
2023-02-14T01:46:44.740Z,7.82
2023-02-14T01:49:20.325Z,7.32
2023-02-14T01:51:52.966Z,7.28
2023-02-14T01:54:24.166Z,8.32
2023-02-14T01:56:58.173Z,9.32
2023-02-14T01:59:32.209Z,10.38
2023-02-14T02:02:00.227Z,8.23
2023-02-14T02:04:33.724Z,7.97
2023-02-14T02:07:08.811Z,7.30
2023-02-14T02:09:47.476Z,7.47
2023-02-14T02:12:16.311Z,7.88
2023-02-14T02:14:44.450Z,7.15
2023-02-14T02:17:38.060Z,7.47
2023-02-14T02:20:24.210Z,6.53
2023-02-14T02:23:29.580Z,7.55
2023-02-14T02:26:02.940Z,6.55
2023-02-14T02:29:05.969Z,6.78
2023-02-14T02:32:06.165Z,9.27
2023-02-14T02:35:05.714Z,5.82
2023-02-14T02:37:50.316Z,6.05
2023-02-14T02:40:30.053Z,5.85
2023-02-14T02:43:03.551Z,9.77
2023-02-14T02:45:35.287Z,9.50
2023-02-14T02:48:15.370Z,10.15
2023-02-14T02:51:12.443Z,9.63
2023-02-14T02:53:50.639Z,9.93
2023-02-14T02:56:45.799Z,8.98
2023-02-14T02:59:29.178Z,13.35
2023-02-14T03:02:18.774Z,10.68
2023-02-14T03:04:54.739Z,9.13
2023-02-14T03:07:35.271Z,12.45
2023-02-14T03:10:17.016Z,16.55
2023-02-14T03:13:18.456Z,17.98
2023-02-14T03:16:19.305Z,16.20
2023-02-14T03:19:16.724Z,15.73
2023-02-14T03:22:09.429Z,11.63
2023-02-14T03:24:49.320Z,10.60
2023-02-14T03:27:22.072Z,6.97
2023-02-14T03:30:18.101Z,9.77
2023-02-14T03:32:51.832Z,8.70
2023-02-14T03:35:22.500Z,6.82
2023-02-14T03:38:02.839Z,8.90
2023-02-14T03:40:40.518Z,8.10
2023-02-14T03:43:17.355Z,7.45
2023-02-14T03:46:09.786Z,8.13
2023-02-14T03:48:40.025Z,8.45
2023-02-14T03:51:11.648Z,13.98
2023-02-14T03:53:44.908Z,16.52
2023-02-14T03:56:29.455Z,12.55
2023-02-14T03:59:01.086Z,16.45
2023-02-14T04:01:53.145Z,11.30
2023-02-14T04:04:24.483Z,13.30
2023-02-14T04:06:52.293Z,11.00
2023-02-14T04:09:19.858Z,9.57
2023-02-14T04:11:50.473Z,8.80
2023-02-14T04:14:19.324Z,8.83
2023-02-14T04:17:05.581Z,16.02
2023-02-14T04:19:33.194Z,18.42
2023-02-14T04:22:01.106Z,19.30
2023-02-14T04:24:29.183Z,19.90
2023-02-14T04:27:26.318Z,21.38
2023-02-14T04:29:54.314Z,15.63
2023-02-14T04:32:23.010Z,15.13
2023-02-14T04:34:51.333Z,11.93
2023-02-14T04:37:20.034Z,11.20
2023-02-14T04:39:47.964Z,12.40
2023-02-14T04:42:15.901Z,15.25
2023-02-14T04:44:43.635Z,15.23
2023-02-14T04:47:11.181Z,16.95
2023-02-14T04:49:38.730Z,21.20
2023-02-14T04:52:07.120Z,16.83
2023-02-14T04:54:34.863Z,22.00
2023-02-14T04:57:02.632Z,15.80
2023-02-14T04:59:30.387Z,16.27
2023-02-14T05:01:57.951Z,13.25
2023-02-14T05:04:25.651Z,17.63
2023-02-14T05:06:53.383Z,18.65
2023-02-14T05:09:21.053Z,19.73
2023-02-14T05:11:49.708Z,20.48
2023-02-14T05:14:17.360Z,16.65
2023-02-14T05:16:45.133Z,13.17
2023-02-14T05:19:13.211Z,11.83
2023-02-14T05:21:41.056Z,10.17
2023-02-14T05:24:08.742Z,11.07
2023-02-14T05:26:36.572Z,11.03
2023-02-14T05:29:04.323Z,11.87
2023-02-14T05:31:32.249Z,15.90
2023-02-14T05:33:59.932Z,18.20
2023-02-14T05:36:27.579Z,14.10
2023-02-14T05:38:55.176Z,15.63
2023-02-14T05:41:24.968Z,11.00
2023-02-14T05:43:52.533Z,12.40
2023-02-14T05:46:20.184Z,13.07
2023-02-14T05:48:47.777Z,12.33
2023-02-14T05:51:15.414Z,14.20
2023-02-14T05:53:43.379Z,17.97
2023-02-14T05:56:11.087Z,17.90
2023-02-14T05:58:38.897Z,18.63
2023-02-14T06:01:06.629Z,15.27
2023-02-14T06:03:34.234Z,17.00
2023-02-14T06:06:01.935Z,16.43
2023-02-14T06:08:29.570Z,17.40
2023-02-14T06:10:57.311Z,21.27
2023-02-14T06:13:25.153Z,23.43
2023-02-14T06:15:54.063Z,19.23
2023-02-14T06:18:21.722Z,19.23
2023-02-14T06:20:49.339Z,25.37
2023-02-14T06:23:17.038Z,23.20
2023-02-14T06:25:44.632Z,23.03
2023-02-14T06:28:13.176Z,21.90
2023-02-14T06:30:41.750Z,23.88
2023-02-14T06:33:09.560Z,22.00
2023-02-14T06:35:37.328Z,23.13
2023-02-14T06:38:04.904Z,22.15
2023-02-14T06:40:32.823Z,20.43
2023-02-14T06:43:00.704Z,18.77
2023-02-14T06:45:28.666Z,18.70
2023-02-14T06:47:56.234Z,18.98
2023-02-14T06:50:23.999Z,17.57
2023-02-14T06:52:51.656Z,17.77
2023-02-14T06:55:19.346Z,17.80
2023-02-14T06:57:46.931Z,20.37
2023-02-14T07:00:15.007Z,22.75
2023-02-14T07:02:42.747Z,22.83
2023-02-14T07:05:10.493Z,25.20
2023-02-14T07:07:38.127Z,21.52
2023-02-14T07:10:06.468Z,18.08
2023-02-14T07:12:35.004Z,19.17
2023-02-14T07:15:02.670Z,19.98
2023-02-14T07:17:30.362Z,20.77
2023-02-14T07:19:57.940Z,20.42
2023-02-14T07:22:25.544Z,18.60
2023-02-14T07:24:53.366Z,17.48
2023-02-14T07:27:21.026Z,16.85
2023-02-14T07:29:48.712Z,15.27
2023-02-14T07:32:16.611Z,15.15
2023-02-14T07:34:44.753Z,13.45
2023-02-14T07:37:12.490Z,17.05
2023-02-14T07:39:40.418Z,14.15
2023-02-14T07:42:08.389Z,14.77
2023-02-14T07:44:38.529Z,14.27
2023-02-14T07:47:07.593Z,15.32
2023-02-14T07:49:35.483Z,20.50
2023-02-14T07:52:03.703Z,18.55
2023-02-14T07:54:31.274Z,14.90
2023-02-14T07:56:59.091Z,14.80
2023-02-14T07:59:26.741Z,14.18
2023-02-14T08:01:54.438Z,13.77
2023-02-14T08:04:26.179Z,16.33
2023-02-14T08:06:54.693Z,13.15
2023-02-14T08:09:25.401Z,11.27
2023-02-14T08:12:16.476Z,10.82
2023-02-14T08:14:44.804Z,12.93
2023-02-14T08:17:13.986Z,12.20
2023-02-14T08:19:41.698Z,11.20
2023-02-14T08:22:09.594Z,10.63
2023-02-14T08:24:37.161Z,10.15
2023-02-14T08:27:04.893Z,11.52
2023-02-14T08:29:32.514Z,10.00
2023-02-14T08:32:00.681Z,10.15
2023-02-14T08:34:28.525Z,9.88
2023-02-14T08:36:56.130Z,11.15
2023-02-14T08:39:24.136Z,9.55
2023-02-14T08:41:52.043Z,10.13
2023-02-14T08:44:20.299Z,10.00
2023-02-14T08:46:47.983Z,10.75
2023-02-14T08:49:16.104Z,12.30
2023-02-14T08:51:43.784Z,11.88
2023-02-14T08:54:11.408Z,22.90
2023-02-14T08:56:39.023Z,13.55
2023-02-14T08:59:07.200Z,12.70
2023-02-14T09:01:36.607Z,13.48
2023-02-14T09:04:04.466Z,15.63
2023-02-14T09:06:32.205Z,35.72
2023-02-14T09:09:02.262Z,18.20
2023-02-14T09:11:30.337Z,14.52
2023-02-14T09:13:58.477Z,13.32
2023-02-14T09:16:26.549Z,12.90
2023-02-14T09:18:55.164Z,13.82
2023-02-14T09:21:26.139Z,13.98
2023-02-14T09:23:54.019Z,13.15
2023-02-14T09:26:22.431Z,12.73
2023-02-14T09:28:50.141Z,13.13
2023-02-14T09:31:23.028Z,13.20
2023-02-14T09:33:51.870Z,11.50
2023-02-14T09:36:38.124Z,10.20
2023-02-14T09:39:05.983Z,11.27
2023-02-14T09:42:01.654Z,10.68
2023-02-14T09:44:38.408Z,10.77
2023-02-14T09:47:21.868Z,10.32
2023-02-14T09:49:52.080Z,9.07
2023-02-14T09:52:23.291Z,8.73
2023-02-14T09:54:57.743Z,9.85
2023-02-14T09:57:31.813Z,11.15
2023-02-14T10:00:19.569Z,10.13
2023-02-14T10:02:59.625Z,10.32
2023-02-14T10:05:30.899Z,10.23
2023-02-14T10:08:43.422Z,9.35
2023-02-14T10:11:15.628Z,7.43
2023-02-14T10:13:46.655Z,10.13
2023-02-14T10:16:18.629Z,10.82
2023-02-14T10:18:48.859Z,11.90
2023-02-14T10:21:38.359Z,9.73
2023-02-14T10:24:21.073Z,10.15
2023-02-14T10:26:50.928Z,7.70
2023-02-14T10:29:20.282Z,7.07
2023-02-14T10:32:00.397Z,7.18
2023-02-14T10:34:31.603Z,6.55
2023-02-14T10:37:18.012Z,7.10
2023-02-14T10:40:00.053Z,7.07
2023-02-14T10:42:46.247Z,7.67
2023-02-14T10:45:51.668Z,6.55
2023-02-14T10:48:31.457Z,6.53
2023-02-14T10:51:19.417Z,6.13
2023-02-14T10:53:59.703Z,9.32
2023-02-14T10:56:35.993Z,8.05
2023-02-14T10:59:21.970Z,7.70
2023-02-14T11:01:52.970Z,5.93
2023-02-14T11:04:23.801Z,6.30
2023-02-14T11:06:52.817Z,5.47
2023-02-14T11:09:21.027Z,6.55
2023-02-14T11:11:54.696Z,5.90
2023-02-14T11:14:30.188Z,6.85
2023-02-14T11:17:00.852Z,13.00
2023-02-14T11:19:31.415Z,7.30
2023-02-14T11:22:01.065Z,6.68
2023-02-14T11:24:46.034Z,8.45
2023-02-14T11:27:19.500Z,8.18
2023-02-14T11:29:55.859Z,6.47
2023-02-14T11:32:24.625Z,7.10
2023-02-14T11:35:12.412Z,7.95
2023-02-14T11:37:45.737Z,7.43
2023-02-14T11:40:29.017Z,9.43
2023-02-14T11:43:13.447Z,6.75
2023-02-14T11:45:44.559Z,8.05
2023-02-14T11:48:37.888Z,8.13
2023-02-14T11:51:16.816Z,8.38
2023-02-14T11:53:48.669Z,6.95
2023-02-14T11:56:19.574Z,7.87
2023-02-14T11:59:03.767Z,7.22
2023-02-14T12:01:38.746Z,7.75
2023-02-14T12:04:15.334Z,9.07
2023-02-14T12:06:44.511Z,6.07
2023-02-14T12:09:22.064Z,7.68
2023-02-14T12:12:01.101Z,10.27
2023-02-14T12:14:35.513Z,8.82
2023-02-14T12:17:12.234Z,8.75
2023-02-14T12:19:58.968Z,8.77
2023-02-14T12:22:34.711Z,9.00
2023-02-14T12:25:05.687Z,8.75
2023-02-14T12:27:56.847Z,8.30
2023-02-14T12:30:31.200Z,7.60
2023-02-14T12:32:59.203Z,7.45
2023-02-14T12:35:50.419Z,6.70
2023-02-14T12:38:42.218Z,7.32
2023-02-14T12:41:36.113Z,9.75
2023-02-14T12:44:38.904Z,9.10
2023-02-14T12:47:19.657Z,7.05
2023-02-14T12:50:00.483Z,7.25
2023-02-14T12:52:57.127Z,7.65
2023-02-14T12:55:24.814Z,6.03
2023-02-14T12:58:06.157Z,7.45
2023-02-14T13:00:33.862Z,8.00
2023-02-14T13:03:45.454Z,6.75
2023-02-14T13:06:28.101Z,8.50
2023-02-14T13:09:05.981Z,8.63
2023-02-14T13:12:00.539Z,7.13
2023-02-14T13:14:43.231Z,5.68
2023-02-14T13:17:23.842Z,6.53
2023-02-14T13:20:29.082Z,6.63
2023-02-14T13:23:05.557Z,6.47
2023-02-14T13:25:40.880Z,7.10
2023-02-14T13:28:13.212Z,6.28
2023-02-14T13:30:43.276Z,6.78
2023-02-14T13:33:36.546Z,6.57
2023-02-14T13:38:44.072Z,6.50
2023-02-14T13:41:14.497Z,6.20
2023-02-14T13:43:47.556Z,7.05
2023-02-14T13:46:19.002Z,6.85
2023-02-14T13:49:00.233Z,5.95
2023-02-14T13:51:51.908Z,6.70
2023-02-14T13:54:43.068Z,9.90
2023-02-14T13:57:31.727Z,6.68
2023-02-14T14:00:17.788Z,7.20
2023-02-14T14:02:50.929Z,8.55
2023-02-14T14:05:32.617Z,7.43
2023-02-14T14:08:27.560Z,7.45
2023-02-14T14:11:04.633Z,7.72
2023-02-14T14:13:41.622Z,9.68
2023-02-14T14:16:26.395Z,6.95
2023-02-14T14:18:57.115Z,6.90
2023-02-14T14:21:25.816Z,7.07
2023-02-14T14:24:21.495Z,8.23
2023-02-14T14:26:58.725Z,7.03
2023-02-14T14:29:29.227Z,8.10
2023-02-14T14:31:57.110Z,5.60
2023-02-14T14:34:27.595Z,5.93
2023-02-14T14:37:16.347Z,11.30
2023-02-14T14:39:58.334Z,8.05
2023-02-14T14:42:33.556Z,7.77
2023-02-14T14:45:05.024Z,5.32
2023-02-14T14:47:42.664Z,6.43
2023-02-14T14:50:17.972Z,6.25
2023-02-14T14:52:53.558Z,8.60
2023-02-14T14:55:25.370Z,9.77
2023-02-14T14:57:56.506Z,8.63
2023-02-14T15:00:28.956Z,7.35
2023-02-14T15:03:03.363Z,7.38
2023-02-14T15:05:40.533Z,6.63
2023-02-14T15:08:27.851Z,8.73
2023-02-14T15:11:00.642Z,11.27
2023-02-14T15:13:54.109Z,10.23
2023-02-14T15:19:07.186Z,22.45
2023-02-14T15:21:35.710Z,19.67
2023-02-14T15:24:04.120Z,14.80
2023-02-14T15:26:36.134Z,15.25
2023-02-14T15:29:06.589Z,19.80
2023-02-14T15:31:42.232Z,21.08
2023-02-14T15:34:12.364Z,35.80
2023-02-14T15:36:42.129Z,43.90
2023-02-14T15:39:16.000Z,40.80
2023-02-14T15:41:45.634Z,26.85
2023-02-14T15:44:23.009Z,28.52
2023-02-14T15:46:56.883Z,21.25
2023-02-14T15:49:36.100Z,16.10
2023-02-14T15:52:06.628Z,21.30
2023-02-14T15:54:45.023Z,18.25
2023-02-14T15:57:25.322Z,13.73
2023-02-14T15:59:54.375Z,192.52
2023-02-14T16:02:41.367Z,115.30
2023-02-14T16:05:19.112Z,46.90
2023-02-14T16:07:57.493Z,31.17
2023-02-14T16:10:29.360Z,26.65
2023-02-14T16:13:03.772Z,21.97
2023-02-14T16:15:37.264Z,21.13
2023-02-14T16:18:18.443Z,18.20
2023-02-14T16:20:51.349Z,21.92
2023-02-14T16:23:23.996Z,12.77
2023-02-14T16:28:20.663Z,11.43
2023-02-14T16:30:55.002Z,5.97
2023-02-14T16:33:29.352Z,5.10
2023-02-14T16:36:33.896Z,3.67
2023-02-14T16:39:05.166Z,5.47
2023-02-14T16:41:35.435Z,6.25
2023-02-14T16:44:05.041Z,36.08
2023-02-14T16:46:35.675Z,25.45
2023-02-14T16:49:04.085Z,12.73
2023-02-14T16:51:34.278Z,15.18
2023-02-14T16:54:09.806Z,23.75
2023-02-14T16:57:00.096Z,20.95
2023-02-14T16:59:28.657Z,12.63
2023-02-14T17:02:00.355Z,10.00
2023-02-14T17:04:28.624Z,10.60
2023-02-14T17:06:58.144Z,10.82
2023-02-14T17:09:32.581Z,12.98
2023-02-14T17:12:06.034Z,13.65
2023-02-14T17:14:37.644Z,13.45
2023-02-14T17:17:10.457Z,12.02
2023-02-14T17:19:42.010Z,10.30
2023-02-14T17:22:13.754Z,7.13
2023-02-14T17:24:42.659Z,9.52
2023-02-14T17:27:10.574Z,7.75
2023-02-14T17:29:39.292Z,7.70
2023-02-14T17:32:14.103Z,12.32
2023-02-14T17:34:43.675Z,11.75
2023-02-14T17:37:12.320Z,28.05
2023-02-14T17:39:40.650Z,51.65
2023-02-14T17:42:10.408Z,31.27
2023-02-14T17:44:40.194Z,23.35
2023-02-14T17:47:08.579Z,20.13
2023-02-14T17:49:37.013Z,28.00
2023-02-14T17:52:05.413Z,21.73
2023-02-14T17:54:38.389Z,21.35
2023-02-14T17:57:08.474Z,17.65
2023-02-14T17:59:38.294Z,15.00
2023-02-14T18:02:07.307Z,17.73
2023-02-14T18:04:37.787Z,22.10
2023-02-14T18:07:07.958Z,16.15
2023-02-14T18:09:36.938Z,11.10
2023-02-14T18:12:08.714Z,10.30
2023-02-14T18:14:39.154Z,14.40
2023-02-14T18:17:15.690Z,12.32
2023-02-14T18:19:45.588Z,9.13
2023-02-14T18:22:16.147Z,10.30
2023-02-14T18:24:49.373Z,7.80
2023-02-14T18:27:18.681Z,10.32
2023-02-14T18:29:48.549Z,8.15
2023-02-14T18:32:17.352Z,7.72
2023-02-14T18:34:48.741Z,5.47
2023-02-14T18:37:18.227Z,4.85
2023-02-14T18:39:47.481Z,6.53
2023-02-14T18:42:18.034Z,6.63
2023-02-14T18:44:47.090Z,5.53
2023-02-14T18:47:15.999Z,5.72
2023-02-14T18:49:45.680Z,7.82
2023-02-14T18:52:15.231Z,8.07
2023-02-14T18:54:43.448Z,6.45
2023-02-14T18:57:11.578Z,5.80
2023-02-14T18:59:40.610Z,8.13
2023-02-14T19:02:10.906Z,9.45
2023-02-14T19:04:39.873Z,12.82
2023-02-14T19:07:11.317Z,16.77
2023-02-14T19:09:40.799Z,12.52
2023-02-14T19:12:11.247Z,11.82
2023-02-14T19:14:40.978Z,13.27
2023-02-14T19:17:09.923Z,12.20
2023-02-14T19:19:41.691Z,10.75
2023-02-14T19:22:10.650Z,10.60
2023-02-14T19:24:41.252Z,12.70
2023-02-14T19:27:10.232Z,18.83
2023-02-14T19:29:41.304Z,19.75
2023-02-14T19:32:11.244Z,23.70
2023-02-14T19:34:41.775Z,30.10
2023-02-14T19:37:10.986Z,22.55
2023-02-14T19:39:41.830Z,15.73
2023-02-14T19:42:13.737Z,16.52
2023-02-14T19:44:43.034Z,16.95
2023-02-14T19:47:31.023Z,18.00
2023-02-14T19:50:02.750Z,13.90
2023-02-14T19:52:31.983Z,13.27
2023-02-14T19:55:01.276Z,10.65
2023-02-14T19:57:32.010Z,10.23
2023-02-14T20:00:02.567Z,16.50
2023-02-14T20:02:46.477Z,13.55
2023-02-14T20:05:19.944Z,14.80
2023-02-14T20:07:52.689Z,10.20
2023-02-14T20:10:23.483Z,9.02
2023-02-14T20:12:55.028Z,11.93
2023-02-14T20:15:26.754Z,20.17
2023-02-14T20:17:58.526Z,11.93
2023-02-14T20:20:54.259Z,12.55
2023-02-14T20:23:32.488Z,11.23
2023-02-14T20:26:01.749Z,18.15
2023-02-14T20:28:30.932Z,14.57
2023-02-14T20:31:01.276Z,17.88
2023-02-14T20:33:31.180Z,30.02
2023-02-14T20:36:04.160Z,27.83
2023-02-14T20:38:36.697Z,24.02
2023-02-14T20:41:10.651Z,23.27
2023-02-14T20:43:40.636Z,19.08
2023-02-14T20:46:10.892Z,13.57
2023-02-14T20:48:44.159Z,12.48
2023-02-14T20:51:18.895Z,15.32
2023-02-14T20:53:49.725Z,11.07
2023-02-14T20:56:19.181Z,5.25
2023-02-14T20:58:50.385Z,6.72
2023-02-14T21:01:22.665Z,6.65
2023-02-14T21:03:54.229Z,7.78
2023-02-14T21:06:29.077Z,9.00
2023-02-14T21:08:59.440Z,8.57
2023-02-14T21:11:28.852Z,7.80
2023-02-14T21:13:59.934Z,10.27
2023-02-14T21:16:30.932Z,23.38
2023-02-14T21:19:00.652Z,29.60
2023-02-14T21:21:38.074Z,14.60
2023-02-14T21:24:15.701Z,21.10
2023-02-14T21:26:46.666Z,16.38
2023-02-14T21:29:15.704Z,21.10
2023-02-14T21:31:44.703Z,20.60
2023-02-14T21:34:16.418Z,15.63
2023-02-14T21:36:45.112Z,16.80
2023-02-14T21:39:14.383Z,12.45
2023-02-14T21:41:43.919Z,9.27
2023-02-14T21:44:32.426Z,10.00
2023-02-14T21:47:01.017Z,12.35
2023-02-14T21:49:48.356Z,17.55
2023-02-14T21:52:17.969Z,17.02
2023-02-14T21:54:46.179Z,16.10
2023-02-14T21:57:16.224Z,14.23
2023-02-14T21:59:46.153Z,15.20
2023-02-14T22:02:14.603Z,13.00
2023-02-14T22:04:44.314Z,12.00
2023-02-14T22:07:12.912Z,9.55
2023-02-14T22:09:41.295Z,11.65
2023-02-14T22:12:09.383Z,17.85
2023-02-14T22:14:37.464Z,17.77
2023-02-14T22:17:05.400Z,14.25
2023-02-14T22:19:33.308Z,12.82
2023-02-14T22:22:00.947Z,21.10
2023-02-14T22:24:28.668Z,14.73
2023-02-14T22:26:56.219Z,11.13
2023-02-14T22:29:23.836Z,11.05
2023-02-14T22:31:51.680Z,10.43
2023-02-14T22:34:19.862Z,13.05
2023-02-14T22:36:49.441Z,14.25
2023-02-14T22:39:17.291Z,12.02
2023-02-14T22:41:45.335Z,14.95
2023-02-14T22:44:13.397Z,14.70
2023-02-14T22:46:41.502Z,9.95
2023-02-14T22:49:09.514Z,13.65
2023-02-14T22:51:39.148Z,11.82
2023-02-14T22:54:13.507Z,10.68
2023-02-14T22:56:46.602Z,10.68
2023-02-14T22:59:14.152Z,8.40
2023-02-14T23:01:43.590Z,6.75
2023-02-14T23:04:11.385Z,4.38
2023-02-14T23:06:39.179Z,9.88
2023-02-14T23:09:08.460Z,15.13
2023-02-14T23:11:38.130Z,13.95
2023-02-14T23:14:25.793Z,10.98
2023-02-14T23:17:11.792Z,9.50
2023-02-14T23:19:57.830Z,8.27
2023-02-14T23:22:28.692Z,10.65
2023-02-14T23:24:58.488Z,9.48
2023-02-14T23:27:38.455Z,11.35
2023-02-14T23:30:09.520Z,10.27
2023-02-14T23:32:37.184Z,9.98
2023-02-14T23:35:05.829Z,10.38
2023-02-14T23:37:33.856Z,10.38
2023-02-14T23:40:01.479Z,8.65
2023-02-14T23:42:29.032Z,8.30
2023-02-14T23:45:16.544Z,6.60
2023-02-14T23:47:44.164Z,7.85
2023-02-14T23:50:11.917Z,8.82
2023-02-14T23:52:41.851Z,7.18
2023-02-14T23:55:09.620Z,6.43
2023-02-14T23:57:37.683Z,6.90
